Time;durP1;ratioP1;P1;durP2;ratioP2;P2;SDS_P1;SDS_P2;PMS_P1;PMS_P2;Temp;Humidity;BMP_temperature;BMP_pressure;BME280_temperature;BME280_humidity;BME280_pressure;Samples;Min_cycle;Max_cycle;Signal;HPM_P1;HPM_P2
2022/10/23 00:02:52;;;;;;;3.42;2.75;;;14.30;99.90;;;;;;10448129;28;20021;-62
2022/10/23 00:07:55;;;;;;;3.40;2.53;;;14.30;99.90;;;;;;10461025;28;20433;-62
2022/10/23 00:12:55;;;;;;;4.00;2.90;;;14.30;99.90;;;;;;10461850;28;20376;-62
2022/10/23 00:17:56;;;;;;;3.45;2.35;;;14.30;99.90;;;;;;10461138;28;20024;-62
2022/10/23 00:22:57;;;;;;;3.58;2.88;;;14.30;99.90;;;;;;10465555;28;20033;-62
2022/10/23 00:27:58;;;;;;;6.40;2.53;;;14.30;99.90;;;;;;10445422;28;20053;-63
2022/10/23 00:32:59;;;;;;;3.08;2.25;;;14.30;99.90;;;;;;10469846;28;20025;-64
2022/10/23 00:37:59;;;;;;;4.13;2.83;;;14.20;99.90;;;;;;10451346;28;20043;-65
2022/10/23 00:43:00;;;;;;;4.15;2.70;;;14.20;99.90;;;;;;10456145;28;20029;-62
2022/10/23 00:48:02;;;;;;;4.93;2.83;;;14.20;99.90;;;;;;10459186;28;20405;-63
2022/10/23 00:53:04;;;;;;;5.25;3.00;;;14.20;99.90;;;;;;10464852;28;20071;-62
2022/10/23 00:58:04;;;;;;;3.25;2.40;;;14.20;99.90;;;;;;10458459;28;20517;-62
2022/10/23 01:03:05;;;;;;;4.47;2.92;;;14.20;99.90;;;;;;10458665;28;20052;-63
2022/10/23 01:08:14;;;;;;;3.10;2.70;;;14.20;99.90;;;;;;10457551;28;20550;-62
2022/10/23 01:13:50;;;;;;;5.32;2.55;;;14.20;99.90;;;;;;10456271;28;20025;-64
2022/10/23 01:19:20;;;;;;;6.93;2.78;;;14.20;99.90;;;;;;10425800;28;20055;-63
2022/10/23 01:25:09;;;;;;;4.43;3.33;;;14.20;99.90;;;;;;10456915;28;20044;-64
2022/10/23 01:30:14;;;;;;;5.78;3.15;;;14.20;99.90;;;;;;10450886;28;20470;-63
2022/10/23 01:35:26;;;;;;;5.13;2.95;;;14.10;99.90;;;;;;10455693;28;20097;-62
2022/10/23 01:40:56;;;;;;;4.43;2.80;;;14.10;99.90;;;;;;10463899;28;20115;-64
2022/10/23 01:46:04;;;;;;;5.97;2.85;;;14.10;99.90;;;;;;10482557;28;20031;-63
2022/10/23 01:51:10;;;;;;;3.70;2.70;;;14.10;99.90;;;;;;10477404;28;20449;-62
2022/10/23 01:56:16;;;;;;;3.85;2.80;;;14.10;99.90;;;;;;10472429;28;20031;-62
2022/10/23 02:01:20;;;;;;;4.18;2.65;;;14.10;99.90;;;;;;10472189;28;20037;-62
2022/10/23 02:06:21;;;;;;;5.43;3.10;;;14.10;99.90;;;;;;10478141;28;20025;-66
2022/10/23 02:11:22;;;;;;;3.50;2.80;;;14.10;99.90;;;;;;10473953;28;20029;-66
2022/10/23 02:16:45;;;;;;;4.40;3.28;;;14.10;99.90;;;;;;10458739;28;20139;-62
2022/10/23 02:22:03;;;;;;;4.53;3.22;;;14.10;99.90;;;;;;10477993;28;20040;-63
2022/10/23 02:27:19;;;;;;;5.03;2.70;;;14.00;99.90;;;;;;10476525;28;20385;-63
2022/10/23 02:32:22;;;;;;;5.00;2.95;;;14.00;99.90;;;;;;10474247;28;20055;-63
2022/10/23 02:37:24;;;;;;;4.85;3.10;;;14.00;99.90;;;;;;10481220;28;20029;-62
2022/10/23 02:42:39;;;;;;;3.30;2.88;;;14.10;99.90;;;;;;10476589;28;20082;-62
2022/10/23 02:48:13;;;;;;;4.30;2.75;;;14.00;99.90;;;;;;10468967;28;20032;-62
2022/10/23 02:53:19;;;;;;;3.60;2.80;;;14.00;99.90;;;;;;10460080;28;20045;-63
2022/10/23 02:58:26;;;;;;;4.97;2.78;;;14.00;99.90;;;;;;10471133;28;20029;-64
2022/10/23 03:03:35;;;;;;;4.30;3.30;;;14.00;99.90;;;;;;10473412;28;20036;-62
2022/10/23 03:08:53;;;;;;;4.22;3.00;;;14.00;99.90;;;;;;10461008;28;20476;-63
2022/10/23 03:13:53;;;;;;;4.38;2.80;;;14.00;99.90;;;;;;10459680;28;20021;-62
2022/10/23 03:18:54;;;;;;;4.78;3.08;;;14.00;99.90;;;;;;10471234;28;20063;-62
2022/10/23 03:23:55;;;;;;;3.28;2.58;;;13.90;99.90;;;;;;10444868;28;20025;-62
2022/10/23 03:28:55;;;;;;;6.25;3.10;;;14.00;99.90;;;;;;10472962;28;20492;-62
2022/10/23 03:33:56;;;;;;;5.05;3.05;;;13.90;99.90;;;;;;10469042;28;20075;-62
2022/10/23 03:38:59;;;;;;;4.03;3.25;;;13.90;99.90;;;;;;10462836;28;20037;-62
2022/10/23 03:43:59;;;;;;;4.18;3.10;;;13.90;99.90;;;;;;10468662;28;20083;-63
2022/10/23 03:49:00;;;;;;;5.15;3.28;;;13.90;99.90;;;;;;10460065;28;20055;-62
2022/10/23 03:54:01;;;;;;;4.47;3.13;;;13.90;99.90;;;;;;10468780;28;20024;-63
2022/10/23 03:59:01;;;;;;;5.40;3.28;;;13.90;99.90;;;;;;10456808;28;20553;-63
2022/10/23 04:04:02;;;;;;;4.47;3.05;;;13.90;99.90;;;;;;10468441;28;20112;-63
2022/10/23 04:09:03;;;;;;;6.93;3.33;;;13.90;99.90;;;;;;10460231;28;20094;-62
2022/10/23 04:14:04;;;;;;;5.90;4.20;;;13.90;99.90;;;;;;10459654;28;20028;-62
2022/10/23 04:19:05;;;;;;;6.35;3.72;;;13.90;99.90;;;;;;10466914;28;20029;-62
2022/10/23 04:24:06;;;;;;;5.38;3.58;;;13.90;99.90;;;;;;10465991;28;20021;-63
2022/10/23 04:29:06;;;;;;;4.80;3.05;;;13.80;99.90;;;;;;10463684;28;20029;-63
2022/10/23 04:34:07;;;;;;;5.35;3.47;;;13.90;99.90;;;;;;10443215;28;20013;-62
2022/10/23 04:39:09;;;;;;;4.47;3.58;;;13.80;99.90;;;;;;10452825;28;20348;-62
2022/10/23 04:44:09;;;;;;;7.13;4.47;;;13.80;99.90;;;;;;10462337;28;20017;-62
2022/10/23 04:49:10;;;;;;;5.30;3.70;;;13.80;99.90;;;;;;10449872;28;20020;-62
2022/10/23 04:54:11;;;;;;;6.35;3.97;;;13.80;99.90;;;;;;10465197;28;20033;-62
2022/10/23 04:59:11;;;;;;;5.93;4.00;;;13.80;99.90;;;;;;10459653;28;20032;-63
2022/10/23 05:04:12;;;;;;;5.20;3.42;;;13.80;99.90;;;;;;10461902;28;20028;-64
2022/10/23 05:09:13;;;;;;;5.65;3.65;;;13.80;99.90;;;;;;10461022;28;20037;-62
2022/10/23 05:14:14;;;;;;;7.82;4.40;;;13.80;99.90;;;;;;10458853;28;20025;-62
2022/10/23 05:19:31;;;;;;;5.65;3.63;;;13.80;99.90;;;;;;10452392;28;20041;-63
2022/10/23 05:24:32;;;;;;;6.50;3.50;;;13.80;99.90;;;;;;10461875;28;20029;-62
2022/10/23 05:29:33;;;;;;;5.85;3.40;;;13.80;99.90;;;;;;10455008;28;20032;-62
2022/10/23 05:34:35;;;;;;;5.35;3.40;;;13.80;99.90;;;;;;10453874;28;20047;-62
2022/10/23 05:39:36;;;;;;;6.72;3.63;;;13.70;99.90;;;;;;10451759;28;20075;-63
2022/10/23 05:44:36;;;;;;;5.57;3.50;;;13.70;99.90;;;;;;10457141;28;20570;-62
2022/10/23 05:49:37;;;;;;;8.77;3.83;;;13.70;99.90;;;;;;10461393;28;20036;-63
2022/10/23 05:54:38;;;;;;;8.25;4.20;;;13.80;99.90;;;;;;10457780;28;20017;-62
2022/10/23 05:59:38;;;;;;;6.40;3.40;;;13.70;99.90;;;;;;10458826;28;20025;-62
2022/10/23 06:04:39;;;;;;;6.75;3.60;;;13.70;99.90;;;;;;10453000;28;20036;-62
2022/10/23 06:09:40;;;;;;;6.35;3.80;;;13.80;99.90;;;;;;10463389;28;20017;-62
2022/10/23 06:14:40;;;;;;;5.60;3.90;;;13.70;99.90;;;;;;10468731;28;20025;-62
2022/10/23 06:19:44;;;;;;;6.10;3.22;;;13.70;99.90;;;;;;10453709;28;20040;-65
2022/10/23 06:24:44;;;;;;;6.20;3.50;;;13.70;99.90;;;;;;10459862;28;20016;-63
2022/10/23 06:29:45;;;;;;;4.88;3.55;;;13.70;99.90;;;;;;10463384;28;20033;-62
2022/10/23 06:34:46;;;;;;;6.18;3.72;;;13.80;99.90;;;;;;10467572;28;20359;-62
2022/10/23 06:39:47;;;;;;;5.95;3.60;;;13.70;99.90;;;;;;10469816;28;20389;-62
2022/10/23 06:44:47;;;;;;;4.53;3.05;;;13.70;99.90;;;;;;10466572;28;20382;-62
2022/10/23 06:49:48;;;;;;;6.05;3.35;;;13.70;99.90;;;;;;10461584;28;20818;-62
2022/10/23 06:54:49;;;;;;;5.45;3.28;;;13.80;99.90;;;;;;10466751;28;20199;-61
2022/10/23 06:59:50;;;;;;;4.90;3.00;;;13.70;99.90;;;;;;10459819;28;20036;-62
2022/10/23 07:04:50;;;;;;;6.75;3.03;;;13.80;99.90;;;;;;10375058;28;20508;-62
2022/10/23 07:09:51;;;;;;;5.68;3.28;;;13.70;99.90;;;;;;10384379;28;20941;-62
2022/10/23 07:14:52;;;;;;;5.57;3.22;;;13.30;99.90;;;;;;10385035;28;20652;-61
2022/10/23 07:19:52;;;;;;;11.27;3.47;;;13.80;99.90;;;;;;10396737;28;21093;-62
2022/10/23 07:24:53;;;;;;;4.80;3.03;;;13.70;99.90;;;;;;10391073;28;20113;-62
2022/10/23 07:29:54;;;;;;;5.53;3.50;;;13.80;99.90;;;;;;10379911;28;20085;-62
2022/10/23 07:34:54;;;;;;;7.57;3.85;;;13.80;99.90;;;;;;10382762;28;20074;-62
2022/10/23 07:39:55;;;;;;;5.70;3.28;;;13.80;99.90;;;;;;10384814;28;20823;-62
2022/10/23 07:44:56;;;;;;;6.30;2.92;;;13.80;99.90;;;;;;10363272;28;20544;-63
2022/10/23 07:49:57;;;;;;;5.68;3.20;;;13.80;99.90;;;;;;10383478;28;20048;-62
2022/10/23 07:54:57;;;;;;;6.18;3.65;;;13.80;99.90;;;;;;10387503;28;20460;-64
2022/10/23 07:59:58;;;;;;;5.45;3.40;;;13.80;99.90;;;;;;10389130;28;20407;-62
2022/10/23 08:04:59;;;;;;;4.40;3.30;;;13.80;99.90;;;;;;10382469;28;20028;-63
2022/10/23 08:10:00;;;;;;;4.57;3.05;;;13.80;99.90;;;;;;10355435;28;20554;-62
2022/10/23 08:15:00;;;;;;;6.18;3.80;;;13.90;99.90;;;;;;10380109;28;20524;-62
2022/10/23 08:20:01;;;;;;;4.75;2.95;;;13.90;99.90;;;;;;10387464;28;20043;-64
2022/10/23 08:25:02;;;;;;;4.68;3.22;;;14.10;99.90;;;;;;10369136;28;20028;-63
2022/10/23 08:30:03;;;;;;;4.53;3.50;;;13.90;99.90;;;;;;10381470;28;20024;-63
2022/10/23 08:35:04;;;;;;;3.70;2.70;;;13.90;99.90;;;;;;10381183;28;20511;-62
2022/10/23 08:40:05;;;;;;;6.63;3.30;;;14.00;99.90;;;;;;10392609;28;20040;-63
2022/10/23 08:45:18;;;;;;;5.78;3.20;;;14.00;99.90;;;;;;10392843;28;20187;-62
2022/10/23 08:51:06;;;;;;;6.53;3.45;;;14.00;99.90;;;;;;10381530;28;20056;-65
2022/10/23 09:02:01;;;;;;;4.10;2.50;;;15.00;99.90;;;;;;10466879;27;20356;-61
2022/10/23 09:07:15;;;;;;;5.05;2.85;;;14.10;99.90;;;;;;10440455;28;20211;-62
2022/10/23 09:12:21;;;;;;;5.13;3.03;;;14.10;99.90;;;;;;10431514;28;20055;-62
2022/10/23 09:17:30;;;;;;;3.47;2.47;;;14.10;99.90;;;;;;10454257;28;20066;-65
2022/10/23 09:22:31;;;;;;;4.78;2.95;;;14.10;99.90;;;;;;10439132;28;20040;-64
2022/10/23 09:27:31;;;;;;;4.00;2.97;;;14.20;99.90;;;;;;10447501;28;20086;-63
2022/10/23 09:32:34;;;;;;;4.22;2.60;;;14.20;99.90;;;;;;10440969;28;20028;-63
2022/10/23 09:37:45;;;;;;;3.85;2.45;;;14.20;99.90;;;;;;10454767;28;20028;-65
2022/10/23 09:43:14;;;;;;;4.65;2.47;;;14.20;99.90;;;;;;10453364;28;20051;-62
2022/10/23 09:48:17;;;;;;;4.35;2.40;;;14.20;99.90;;;;;;10455302;28;20225;-63
2022/10/23 09:53:35;;;;;;;4.57;2.60;;;14.20;99.90;;;;;;10437393;28;20032;-63
2022/10/23 09:58:42;;;;;;;3.38;2.40;;;14.30;99.90;;;;;;10442634;28;20044;-63
2022/10/23 10:03:49;;;;;;;7.25;2.20;;;14.30;99.90;;;;;;10436018;28;20028;-63
2022/10/23 10:08:53;;;;;;;3.28;2.20;;;14.30;99.90;;;;;;10440330;28;20028;-63
2022/10/23 10:14:31;;;;;;;4.50;2.00;;;14.30;99.90;;;;;;10419227;28;20050;-63
2022/10/23 10:19:40;;;;;;;5.43;2.70;;;14.40;99.90;;;;;;10389054;28;20411;-63
2022/10/23 10:24:51;;;;;;;5.30;2.30;;;14.40;99.90;;;;;;10422327;28;20454;-64
2022/10/23 10:30:09;;;;;;;4.20;2.25;;;14.40;99.90;;;;;;10419809;28;20099;-67
2022/10/23 10:35:31;;;;;;;4.07;2.53;;;14.40;99.90;;;;;;10417177;28;20024;-63
2022/10/23 10:40:55;;;;;;;3.83;1.98;;;14.40;99.90;;;;;;10402568;22;20079;-63
2022/10/23 10:46:01;;;;;;;3.55;1.88;;;14.40;99.90;;;;;;10464417;22;20241;-63
2022/10/23 10:51:25;;;;;;;4.25;2.15;;;14.40;99.90;;;;;;10348512;28;20807;-64
2022/10/23 10:56:30;;;;;;;4.25;2.40;;;14.40;99.90;;;;;;10356570;28;20048;-63
2022/10/23 11:01:40;;;;;;;4.30;2.25;;;14.40;99.90;;;;;;10361085;28;20043;-63
2022/10/23 11:06:45;;;;;;;3.65;2.53;;;14.50;99.90;;;;;;10349989;28;20114;-63
2022/10/23 11:11:46;;;;;;;3.67;2.60;;;14.50;99.90;;;;;;10358080;28;20694;-62
2022/10/23 11:17:15;;;;;;;5.45;2.53;;;14.50;99.90;;;;;;10328821;28;20041;-63
2022/10/23 11:22:19;;;;;;;3.85;2.72;;;14.50;99.90;;;;;;10353849;28;20052;-63
2022/10/23 11:27:38;;;;;;;6.35;2.67;;;14.50;99.90;;;;;;10339662;28;20036;-62
2022/10/23 11:33:16;;;;;;;5.70;2.90;;;14.60;99.90;;;;;;10349277;28;20400;-62
2022/10/23 11:38:29;;;;;;;5.28;2.88;;;14.60;99.90;;;;;;10354481;28;21593;-62
2022/10/23 11:43:45;;;;;;;3.92;2.70;;;14.60;99.90;;;;;;10352026;28;20591;-62
2022/10/23 11:48:46;;;;;;;7.45;2.65;;;14.60;99.90;;;;;;10354900;28;20350;-62
2022/10/23 11:53:47;;;;;;;4.45;2.33;;;14.60;99.90;;;;;;10336235;28;20127;-62
2022/10/23 11:58:51;;;;;;;5.95;2.83;;;14.60;99.90;;;;;;10354758;28;20047;-62
2022/10/23 12:03:56;;;;;;;6.30;2.60;;;14.60;99.90;;;;;;10352676;28;20225;-62
2022/10/23 12:09:06;;;;;;;9.38;2.78;;;14.60;99.90;;;;;;10345750;28;20468;-64
2022/10/23 12:14:31;;;;;;;8.77;3.08;;;14.60;99.90;;;;;;10347682;28;20407;-63
2022/10/23 12:19:46;;;;;;;5.43;2.30;;;14.60;99.90;;;;;;10348484;28;20076;-63
2022/10/23 12:25:14;;;;;;;7.18;2.70;;;14.70;99.90;;;;;;10348926;28;20038;-62
2022/10/23 12:30:30;;;;;;;9.03;3.40;;;14.70;99.90;;;;;;10339874;28;20742;-62
2022/10/23 12:36:02;;;;;;;7.38;2.60;;;14.70;99.90;;;;;;10344836;28;20894;-63
2022/10/23 12:41:10;;;;;;;5.80;2.80;;;14.70;99.90;;;;;;10347771;28;20315;-62
2022/10/23 12:46:19;;;;;;;10.32;3.17;;;14.70;99.90;;;;;;10343003;28;20128;-67
2022/10/23 12:51:27;;;;;;;5.75;2.40;;;14.80;99.90;;;;;;10331470;28;20029;-62
2022/10/23 12:56:34;;;;;;;7.75;2.67;;;14.80;99.90;;;;;;10341970;28;20029;-62
2022/10/23 13:01:35;;;;;;;7.30;2.45;;;14.80;99.90;;;;;;10335081;28;20695;-63
2022/10/23 13:06:37;;;;;;;7.53;2.80;;;14.80;99.90;;;;;;10338935;28;20029;-63
2022/10/23 13:11:38;;;;;;;5.93;2.17;;;14.90;99.90;;;;;;10339946;28;20432;-62
2022/10/23 13:16:39;;;;;;;7.75;2.67;;;14.90;99.90;;;;;;10322373;28;20431;-63
2022/10/23 13:21:45;;;;;;;8.05;3.85;;;14.90;99.90;;;;;;10346536;28;20435;-62
2022/10/23 13:26:45;;;;;;;4.65;2.42;;;14.90;99.90;;;;;;10348253;28;20368;-62
2022/10/23 13:31:46;;;;;;;5.28;2.58;;;15.00;99.90;;;;;;10341699;28;20025;-62
2022/10/23 13:36:57;;;;;;;5.03;2.38;;;15.00;99.90;;;;;;10344395;28;20839;-62
2022/10/23 13:42:08;;;;;;;6.03;2.92;;;15.00;99.90;;;;;;10347690;28;20903;-63
2022/10/23 13:47:13;;;;;;;6.00;2.60;;;15.00;99.90;;;;;;10350373;28;20026;-63
2022/10/23 13:52:19;;;;;;;4.38;2.67;;;15.00;99.90;;;;;;10353319;28;20259;-63
2022/10/23 13:57:20;;;;;;;4.75;2.45;;;15.00;99.90;;;;;;10355202;28;20435;-62
2022/10/23 14:02:22;;;;;;;5.97;2.25;;;15.00;99.90;;;;;;10349410;28;20025;-70
2022/10/23 14:07:22;;;;;;;5.00;2.28;;;15.00;99.90;;;;;;10345725;28;20056;-62
2022/10/23 14:12:23;;;;;;;6.28;2.60;;;15.00;99.90;;;;;;10348194;28;20048;-67
2022/10/23 14:17:24;;;;;;;5.45;2.30;;;15.00;99.90;;;;;;10350071;28;20353;-62
2022/10/23 14:22:25;;;;;;;7.03;2.05;;;15.00;99.90;;;;;;10343416;28;20412;-63
2022/10/23 14:27:26;;;;;;;5.57;2.50;;;15.10;99.90;;;;;;10349189;28;20535;-62
2022/10/23 14:32:28;;;;;;;5.72;2.38;;;15.10;99.90;;;;;;10343020;28;20068;-62
2022/10/23 14:37:30;;;;;;;5.63;2.92;;;15.10;99.90;;;;;;10350104;28;20477;-63
2022/10/23 14:42:33;;;;;;;4.30;2.28;;;15.10;99.90;;;;;;10350231;28;20261;-62
2022/10/23 14:47:33;;;;;;;4.13;2.10;;;15.10;99.90;;;;;;10327437;28;20604;-62
2022/10/23 14:52:34;;;;;;;4.35;2.13;;;15.20;99.90;;;;;;10351811;28;20235;-62
2022/10/23 14:57:36;;;;;;;4.25;2.28;;;15.20;99.90;;;;;;10349991;28;20068;-63
2022/10/23 15:02:37;;;;;;;3.97;2.35;;;15.20;99.90;;;;;;10340572;28;20033;-62
2022/10/23 15:07:39;;;;;;;3.05;2.03;;;15.20;99.90;;;;;;10342909;28;20097;-63
2022/10/23 15:12:40;;;;;;;4.22;2.33;;;15.20;99.90;;;;;;10353579;28;20451;-62
2022/10/23 15:17:41;;;;;;;3.42;2.05;;;15.20;99.90;;;;;;10348127;28;20155;-62
2022/10/23 15:22:41;;;;;;;4.95;2.50;;;15.20;99.90;;;;;;10350552;28;20093;-62
2022/10/23 15:27:42;;;;;;;4.70;2.58;;;15.30;99.90;;;;;;10353319;28;20037;-69
2022/10/23 15:32:44;;;;;;;2.38;1.83;;;15.20;99.90;;;;;;10340505;28;20510;-63
2022/10/23 15:37:45;;;;;;;3.25;1.90;;;15.30;99.90;;;;;;10350221;28;20363;-63
2022/10/23 15:42:48;;;;;;;4.13;2.10;;;15.30;99.90;;;;;;10350556;28;20045;-69
2022/10/23 15:47:49;;;;;;;4.20;2.17;;;15.30;99.90;;;;;;10354810;28;20024;-63
2022/10/23 15:52:52;;;;;;;5.65;2.30;;;15.20;99.90;;;;;;10347400;28;20567;-70
2022/10/23 15:57:54;;;;;;;3.22;2.45;;;15.20;99.90;;;;;;10346959;28;20041;-62
2022/10/23 16:02:54;;;;;;;8.60;2.30;;;15.20;99.90;;;;;;10343518;28;20052;-62
2022/10/23 16:07:55;;;;;;;3.78;1.88;;;15.20;99.90;;;;;;10340660;28;20033;-62
2022/10/23 16:12:56;;;;;;;5.05;2.15;;;15.20;99.90;;;;;;10347054;28;20079;-62
2022/10/23 16:17:56;;;;;;;4.00;1.85;;;15.20;99.90;;;;;;10343093;28;20462;-62
2022/10/23 16:22:57;;;;;;;2.65;2.00;;;15.20;99.90;;;;;;10349438;28;20373;-63
2022/10/23 16:27:58;;;;;;;4.35;2.10;;;15.20;99.90;;;;;;10343074;28;20489;-62
2022/10/23 16:32:58;;;;;;;2.50;1.92;;;15.20;99.90;;;;;;10347305;28;20362;-63
2022/10/23 16:37:59;;;;;;;5.40;2.70;;;15.20;99.90;;;;;;10338400;28;20140;-62
2022/10/23 16:42:59;;;;;;;7.80;2.08;;;15.20;99.90;;;;;;10326182;28;20084;-63
2022/10/23 16:48:00;;;;;;;3.08;1.90;;;15.20;99.90;;;;;;10380067;28;20120;-62
2022/10/23 16:53:01;;;;;;;4.63;2.08;;;15.20;99.90;;;;;;10427149;28;20482;-64
2022/10/23 16:58:02;;;;;;;3.88;1.98;;;15.20;99.90;;;;;;10419517;28;20045;-64
2022/10/23 17:03:03;;;;;;;3.42;2.05;;;15.20;99.90;;;;;;10426957;28;20029;-65
2022/10/23 17:08:04;;;;;;;5.25;2.13;;;15.10;99.90;;;;;;10430015;28;20223;-62
2022/10/23 17:13:05;;;;;;;5.13;2.28;;;15.20;99.90;;;;;;10428970;28;20025;-64
2022/10/23 17:18:05;;;;;;;3.33;2.38;;;15.20;99.90;;;;;;10423589;28;20098;-65
2022/10/23 17:23:06;;;;;;;5.20;2.47;;;15.20;99.90;;;;;;10427587;28;20040;-62
2022/10/23 17:28:06;;;;;;;4.20;2.30;;;15.20;99.90;;;;;;10425484;28;20489;-61
2022/10/23 17:33:07;;;;;;;6.30;2.35;;;15.20;99.90;;;;;;10428418;28;20509;-61
2022/10/23 17:38:08;;;;;;;3.33;2.45;;;15.20;99.90;;;;;;10426987;28;20049;-61
2022/10/23 17:43:09;;;;;;;9.68;2.35;;;15.20;99.90;;;;;;10428191;28;20191;-61
2022/10/23 17:48:11;;;;;;;4.55;2.85;;;15.20;99.90;;;;;;10433755;28;20029;-62
2022/10/23 17:53:12;;;;;;;3.55;1.90;;;15.20;99.90;;;;;;10430988;28;20446;-62
2022/10/23 17:58:12;;;;;;;5.18;2.42;;;15.20;99.90;;;;;;10429495;28;20053;-62
2022/10/23 18:03:13;;;;;;;4.50;2.35;;;15.20;99.90;;;;;;10404790;28;20124;-62
2022/10/23 18:08:14;;;;;;;8.15;2.72;;;15.20;99.90;;;;;;10435012;28;20255;-67
2022/10/23 18:13:14;;;;;;;4.53;2.50;;;15.20;99.90;;;;;;10430447;28;20044;-62
2022/10/23 18:18:15;;;;;;;5.25;2.30;;;15.30;99.90;;;;;;10433439;28;20041;-61
2022/10/23 18:23:16;;;;;;;4.43;2.38;;;15.20;99.90;;;;;;10411643;28;20017;-62
2022/10/23 18:28:16;;;;;;;4.47;2.30;;;15.20;99.90;;;;;;10427697;28;20033;-62
2022/10/23 18:33:18;;;;;;;5.43;2.10;;;15.20;99.90;;;;;;10428511;28;20504;-61
2022/10/23 18:38:18;;;;;;;4.93;2.40;;;15.10;99.90;;;;;;10424702;28;20029;-62
2022/10/23 18:43:19;;;;;;;7.85;3.00;;;15.30;99.90;;;;;;10426511;28;20422;-62
2022/10/23 18:48:19;;;;;;;6.80;2.80;;;15.30;99.90;;;;;;10434469;28;20040;-62
2022/10/23 18:53:20;;;;;;;4.10;2.60;;;15.30;99.90;;;;;;10426914;28;20018;-61
2022/10/23 18:58:21;;;;;;;4.53;2.42;;;15.30;99.90;;;;;;10418678;28;20037;-62
2022/10/23 19:03:22;;;;;;;4.47;2.30;;;15.30;99.90;;;;;;10428956;28;20025;-63
2022/10/23 19:08:22;;;;;;;4.05;2.50;;;15.30;99.90;;;;;;10427686;28;20033;-63
2022/10/23 19:13:23;;;;;;;3.75;2.40;;;15.30;99.90;;;;;;10425947;28;20501;-63
2022/10/23 19:18:24;;;;;;;6.03;2.33;;;15.40;99.90;;;;;;10423403;28;20041;-63
2022/10/23 19:23:25;;;;;;;8.18;3.00;;;15.40;99.90;;;;;;10430917;28;20482;-64
2022/10/23 19:28:25;;;;;;;8.45;2.58;;;15.40;99.90;;;;;;10425980;28;20561;-64
2022/10/23 19:33:26;;;;;;;4.30;2.42;;;15.40;99.90;;;;;;10425803;28;20108;-64
2022/10/23 19:38:27;;;;;;;4.00;2.33;;;15.40;99.90;;;;;;10428254;28;20505;-63
2022/10/23 19:43:27;;;;;;;4.53;2.25;;;15.40;99.90;;;;;;10423895;28;20133;-64
2022/10/23 19:48:28;;;;;;;3.97;2.20;;;15.40;99.90;;;;;;10424782;28;20022;-62
2022/10/23 19:53:29;;;;;;;7.05;2.30;;;15.40;99.90;;;;;;10425634;28;20021;-63
2022/10/23 19:58:29;;;;;;;4.30;2.53;;;15.40;99.90;;;;;;10426840;28;20044;-62
2022/10/23 20:03:30;;;;;;;3.30;2.30;;;15.40;99.90;;;;;;10423529;28;20505;-62
2022/10/23 20:08:31;;;;;;;5.40;3.33;;;15.40;99.90;;;;;;10423282;28;20018;-63
2022/10/23 20:13:32;;;;;;;4.53;2.28;;;15.50;99.90;;;;;;10421004;28;20555;-62
2022/10/23 20:18:33;;;;;;;3.63;2.22;;;15.50;99.90;;;;;;10420228;28;20371;-62
2022/10/23 20:23:34;;;;;;;5.63;2.20;;;15.50;99.90;;;;;;10423593;28;20030;-62
2022/10/23 20:28:35;;;;;;;4.70;2.58;;;15.50;99.90;;;;;;10419320;28;20087;-63
2022/10/23 20:33:37;;;;;;;3.55;2.42;;;15.50;99.90;;;;;;10425016;28;20025;-62
2022/10/23 20:38:38;;;;;;;6.65;2.28;;;15.50;99.90;;;;;;10424236;28;20068;-62
2022/10/23 20:43:38;;;;;;;4.32;2.78;;;15.50;99.90;;;;;;10429226;28;20127;-62
2022/10/23 20:48:42;;;;;;;4.32;1.90;;;15.50;99.90;;;;;;10423850;28;20028;-63
2022/10/23 20:53:44;;;;;;;8.73;2.42;;;15.50;99.90;;;;;;10426410;28;20277;-63
2022/10/23 20:58:45;;;;;;;5.38;2.40;;;15.50;99.90;;;;;;10426148;28;20029;-62
2022/10/23 21:03:50;;;;;;;4.05;2.15;;;15.50;99.90;;;;;;10424156;28;20075;-66
2022/10/23 21:08:55;;;;;;;4.88;2.35;;;15.50;99.90;;;;;;10427899;28;20031;-62
2022/10/23 21:13:58;;;;;;;5.78;2.75;;;15.50;99.90;;;;;;10422156;28;20489;-63
2022/10/23 21:19:00;;;;;;;7.45;2.35;;;15.50;99.90;;;;;;10419164;28;20045;-62
2022/10/23 21:24:05;;;;;;;5.88;2.40;;;15.50;99.90;;;;;;10424133;28;20032;-62
2022/10/23 21:29:06;;;;;;;4.00;2.60;;;15.50;99.90;;;;;;10424882;28;20033;-62
2022/10/23 21:34:07;;;;;;;4.78;2.10;;;15.50;99.90;;;;;;10425575;28;20413;-63
2022/10/23 21:39:08;;;;;;;3.28;1.98;;;15.50;99.90;;;;;;10423087;28;20051;-63
2022/10/23 21:44:12;;;;;;;4.15;2.15;;;15.50;99.90;;;;;;10423923;28;20525;-63
2022/10/23 21:49:13;;;;;;;2.35;1.90;;;15.50;99.90;;;;;;10422328;28;20386;-63
2022/10/23 21:54:13;;;;;;;5.88;2.50;;;15.50;99.90;;;;;;10422878;28;20021;-62
2022/10/23 21:59:18;;;;;;;6.22;2.38;;;15.40;99.90;;;;;;10425016;28;20063;-67
2022/10/23 22:04:19;;;;;;;3.47;2.08;;;15.40;99.90;;;;;;10421232;28;20045;-64
2022/10/23 22:09:20;;;;;;;4.40;2.42;;;15.40;99.90;;;;;;10424747;28;20121;-62
2022/10/23 22:14:21;;;;;;;6.10;2.20;;;15.40;99.90;;;;;;10427434;28;20028;-62
2022/10/23 22:19:22;;;;;;;4.70;2.13;;;15.40;99.90;;;;;;10426324;28;20043;-63
2022/10/23 22:24:23;;;;;;;3.30;1.88;;;15.40;99.90;;;;;;10426732;28;20379;-62
2022/10/23 22:29:26;;;;;;;6.57;2.33;;;15.40;99.90;;;;;;10423734;28;20608;-62
2022/10/23 22:34:28;;;;;;;3.30;1.90;;;15.40;99.90;;;;;;10419775;28;20025;-63
2022/10/23 22:39:29;;;;;;;2.13;1.73;;;15.40;99.90;;;;;;10429435;28;20033;-62
2022/10/23 22:44:30;;;;;;;5.45;2.13;;;15.30;99.90;;;;;;10425114;28;20042;-63
2022/10/23 22:49:30;;;;;;;3.90;1.95;;;15.30;99.90;;;;;;10423990;28;20033;-62
2022/10/23 22:54:31;;;;;;;4.43;2.20;;;15.30;99.90;;;;;;10418107;28;20026;-62
2022/10/23 22:59:32;;;;;;;5.88;2.38;;;15.30;99.90;;;;;;10423368;28;20406;-62
2022/10/23 23:04:32;;;;;;;4.03;1.67;;;15.30;99.90;;;;;;10424193;28;20029;-62
2022/10/23 23:09:38;;;;;;;6.68;1.80;;;15.30;99.90;;;;;;10408977;28;20030;-62
2022/10/23 23:14:39;;;;;;;3.72;1.63;;;15.30;99.90;;;;;;10421178;28;20035;-62
2022/10/23 23:19:40;;;;;;;3.20;1.58;;;15.30;99.90;;;;;;10427841;28;20064;-62
2022/10/23 23:24:40;;;;;;;3.90;1.50;;;15.30;99.90;;;;;;10421695;28;20084;-62
2022/10/23 23:29:41;;;;;;;3.22;1.42;;;15.40;99.90;;;;;;10421722;28;20116;-67
2022/10/23 23:34:42;;;;;;;2.88;1.70;;;15.40;99.90;;;;;;10419143;28;20022;-62
2022/10/23 23:39:42;;;;;;;3.10;1.60;;;15.40;99.90;;;;;;10423166;28;20521;-62
2022/10/23 23:44:43;;;;;;;1.95;1.33;;;15.30;99.90;;;;;;10424121;28;20048;-62
2022/10/23 23:49:43;;;;;;;3.60;1.08;;;15.40;99.90;;;;;;10422183;28;20114;-64
2022/10/23 23:54:44;;;;;;;3.10;1.40;;;15.30;99.90;;;;;;10420560;28;20028;-62
2022/10/23 23:59:45;;;;;;;2.05;1.25;;;15.30;99.90;;;;;;10421876;28;20394;-62
